Norwood, Iowa
Current Conditions -  °F | °C
As of 12:35 PM on Monday 22 Dec 2014 (Local Time) from KCNC Reporting Station
Haze Haze  
Wind Chill: 32°   Ceiling: 500
Heat Index: 39°   Visibility: 2mi
Dew Point: 39°   Wind: 10mph
Humidity: 100%   Direction: 130°SE
Pressure: 29.52"   Gusts: NA
Location:  41.0879°N, 93.5007°W
Report Text: KCNC 221835Z AUTO 13009KT 2SM BR OVC005 04/04 A2952 RMK AO2
Loading
Personal Weather Stations






























Interactive Weather Map New forecast layout! Learn more

10-Day Weather Forecast

Advertisements
Track Severe Weather on mobile